TimeMST,TemperatureF,Dew PointF,Humidity,Sea Level PressureIn,VisibilityMPH,Wind Direction,Wind SpeedMPH,Gust SpeedMPH,PrecipitationIn,Events,Conditions,WindDirDegrees,DateUTC
12:15 AM,-2.2,-9.4,71,30.16,10.0,Calm,Calm,-,N/A,,Clear,0,2013-01-15 07:15:00
12:35 AM,-2.2,-11.2,66,30.17,10.0,Calm,Calm,-,N/A,,Clear,0,2013-01-15 07:35:00
12:55 AM,-4.0,-11.2,71,30.17,10.0,Calm,Calm,-,N/A,,Clear,0,2013-01-15 07:55:00
1:15 AM,-4.0,-11.2,71,30.18,10.0,Calm,Calm,-,N/A,,Clear,0,2013-01-15 08:15:00
1:35 AM,-4.0,-11.2,71,30.19,10.0,Calm,Calm,-,N/A,,Clear,0,2013-01-15 08:35:00
1:55 AM,-4.0,-11.2,71,30.18,10.0,Calm,Calm,-,N/A,,Clear,0,2013-01-15 08:55:00
2:15 AM,-4.0,-11.2,71,30.19,10.0,Calm,Calm,-,N/A,,Clear,0,2013-01-15 09:15:00
2:55 AM,-5.8,-11.2,77,30.20,10.0,Calm,Calm,-,N/A,,Clear,0,2013-01-15 09:55:00
3:15 AM,-4.0,-11.2,71,30.20,10.0,Calm,Calm,-,N/A,,Clear,0,2013-01-15 10:15:00
3:55 AM,-4.0,-11.2,71,30.19,10.0,Calm,Calm,-,N/A,,Clear,0,2013-01-15 10:55:00
4:15 AM,-5.8,-11.2,77,30.19,10.0,Calm,Calm,-,N/A,,Clear,0,2013-01-15 11:15:00
4:35 AM,-2.2,-9.4,71,30.20,10.0,Calm,Calm,-,N/A,,Clear,0,2013-01-15 11:35:00
4:55 AM,-4.0,-11.2,71,30.20,10.0,Calm,Calm,-,N/A,,Clear,0,2013-01-15 11:55:00
5:15 AM,-0.4,-9.4,66,30.21,10.0,Calm,Calm,-,N/A,,Clear,0,2013-01-15 12:15:00
5:35 AM,1.4,-9.4,61,30.21,10.0,Calm,Calm,-,N/A,,Clear,0,2013-01-15 12:35:00
5:55 AM,-0.4,-9.4,66,30.21,10.0,Calm,Calm,-,N/A,,Clear,0,2013-01-15 12:55:00
6:15 AM,1.4,-7.6,66,30.21,10.0,Calm,Calm,-,N/A,,Unknown,0,2013-01-15 13:15:00
6:35 AM,-4.0,-11.2,71,30.20,10.0,Calm,Calm,-,N/A,,Clear,0,2013-01-15 13:35:00
6:55 AM,-0.4,-9.4,66,30.21,10.0,Calm,Calm,-,N/A,,Clear,0,2013-01-15 13:55:00
7:15 AM,-0.4,-9.4,66,30.22,10.0,Calm,Calm,-,N/A,,Clear,0,2013-01-15 14:15:00
7:35 AM,6.8,-9.4,48,30.24,10.0,North,8.1,-,N/A,,Clear,360,2013-01-15 14:35:00
7:55 AM,8.6,-9.4,44,30.26,10.0,Calm,Calm,-,N/A,,Clear,0,2013-01-15 14:55:00
8:15 AM,10.4,-9.4,41,30.27,10.0,Calm,Calm,-,N/A,,Clear,0,2013-01-15 15:15:00
8:35 AM,10.4,-9.4,41,30.27,10.0,NE,11.5,-,N/A,,Clear,40,2013-01-15 15:35:00
8:55 AM,14.0,-9.4,35,30.26,10.0,NE,11.5,-,N/A,,Clear,40,2013-01-15 15:55:00
9:15 AM,14.0,-7.6,38,30.27,10.0,NE,13.8,19.6,N/A,,Clear,40,2013-01-15 16:15:00
9:35 AM,15.8,-5.8,38,30.28,10.0,NE,11.5,-,N/A,,Clear,40,2013-01-15 16:35:00
9:55 AM,17.6,-4.0,38,30.28,10.0,NE,11.5,-,N/A,,Clear,40,2013-01-15 16:55:00
10:15 AM,19.4,-2.2,39,30.29,10.0,NE,15.0,-,N/A,,Clear,40,2013-01-15 17:15:00
10:35 AM,21.2,-0.4,39,30.29,10.0,NNE,15.0,-,N/A,,Clear,30,2013-01-15 17:35:00
11:15 AM,23.0,-0.4,36,30.31,10.0,NNE,16.1,-,N/A,,Clear,20,2013-01-15 18:15:00
11:35 AM,23.0,-0.4,36,30.29,10.0,NE,16.1,-,N/A,,Clear,40,2013-01-15 18:35:00
11:55 AM,24.8,1.4,36,30.30,10.0,NNE,15.0,-,N/A,,Clear,30,2013-01-15 18:55:00
12:15 PM,24.8,3.2,40,30.29,10.0,NNE,19.6,-,N/A,,Clear,30,2013-01-15 19:15:00
12:35 PM,26.6,5.0,40,30.29,10.0,NNE,16.1,21.9,N/A,,Clear,30,2013-01-15 19:35:00
12:55 PM,26.6,5.0,40,30.28,10.0,NE,18.4,-,N/A,,Clear,50,2013-01-15 19:55:00
1:15 PM,26.6,5.0,40,30.27,10.0,NE,19.6,24.2,N/A,,Clear,50,2013-01-15 20:15:00
1:35 PM,26.6,6.8,43,30.27,10.0,NNE,16.1,-,N/A,,Clear,30,2013-01-15 20:35:00
1:55 PM,28.4,6.8,40,30.27,10.0,NNE,11.5,-,N/A,,Clear,20,2013-01-15 20:55:00
2:15 PM,28.4,8.6,43,30.27,10.0,NNE,17.3,-,N/A,,Clear,30,2013-01-15 21:15:00
2:35 PM,30.2,8.6,40,30.27,10.0,NNE,15.0,-,N/A,,Clear,30,2013-01-15 21:35:00
2:55 PM,30.2,8.6,40,30.29,10.0,NNE,12.7,-,N/A,,Clear,20,2013-01-15 21:55:00
3:15 PM,30.2,8.6,40,30.30,10.0,NNE,16.1,19.6,N/A,,Clear,20,2013-01-15 22:15:00
3:35 PM,28.4,8.6,43,30.32,10.0,North,16.1,21.9,N/A,,Clear,10,2013-01-15 22:35:00
3:55 PM,28.4,8.6,43,30.32,10.0,NNE,13.8,-,N/A,,Clear,20,2013-01-15 22:55:00
4:35 PM,28.4,6.8,40,30.34,10.0,NE,11.5,-,N/A,,Clear,40,2013-01-15 23:35:00
4:55 PM,26.6,6.8,43,30.35,10.0,NE,10.4,-,N/A,,Clear,40,2013-01-15 23:55:00
5:15 PM,26.6,6.8,43,30.35,10.0,East,6.9,-,N/A,,Clear,90,2013-01-16 00:15:00
5:35 PM,24.8,6.8,46,30.35,10.0,East,9.2,-,N/A,,Clear,80,2013-01-16 00:35:00
5:55 PM,24.8,6.8,46,30.36,10.0,NE,10.4,-,N/A,,Clear,50,2013-01-16 00:55:00
6:15 PM,24.8,6.8,46,30.36,10.0,NE,6.9,-,N/A,,Clear,50,2013-01-16 01:15:00
6:35 PM,23.0,6.8,50,30.36,10.0,Calm,Calm,-,N/A,,Clear,0,2013-01-16 01:35:00
6:55 PM,23.0,6.8,50,30.37,10.0,Calm,Calm,-,N/A,,Clear,0,2013-01-16 01:55:00
7:15 PM,24.8,6.8,46,30.37,10.0,NW,3.5,-,N/A,,Clear,320,2013-01-16 02:15:00
7:35 PM,23.0,6.8,50,30.38,10.0,Calm,Calm,-,N/A,,Clear,0,2013-01-16 02:35:00
7:55 PM,17.6,5.0,58,30.38,10.0,NW,8.1,-,N/A,,Clear,320,2013-01-16 02:55:00
8:15 PM,17.6,5.0,58,30.39,10.0,NW,5.8,-,N/A,,Clear,320,2013-01-16 03:15:00
8:35 PM,15.8,3.2,58,30.39,10.0,Calm,Calm,-,N/A,,Clear,0,2013-01-16 03:35:00
8:55 PM,17.6,5.0,58,30.39,10.0,Calm,Calm,-,N/A,,Clear,0,2013-01-16 03:55:00
9:15 PM,17.6,3.2,53,30.39,10.0,Calm,Calm,-,N/A,,Clear,0,2013-01-16 04:15:00
9:35 PM,15.8,3.2,58,30.40,10.0,Calm,Calm,-,N/A,,Clear,0,2013-01-16 04:35:00
9:55 PM,12.2,3.2,67,30.40,10.0,Calm,Calm,-,N/A,,Clear,0,2013-01-16 04:55:00
10:15 PM,15.8,1.4,53,30.40,10.0,Calm,Calm,-,N/A,,Clear,0,2013-01-16 05:15:00
10:35 PM,10.4,1.4,67,30.40,10.0,South,4.6,-,N/A,,Clear,170,2013-01-16 05:35:00
10:55 PM,10.4,1.4,67,30.40,10.0,SSE,6.9,-,N/A,,Clear,160,2013-01-16 05:55:00
11:15 PM,10.4,3.2,73,30.40,10.0,Calm,Calm,-,N/A,,Clear,0,2013-01-16 06:15:00
11:35 PM,10.4,1.4,67,30.40,10.0,Calm,Calm,-,N/A,,Clear,0,2013-01-16 06:35:00
11:55 PM,10.4,3.2,73,30.40,10.0,SSE,8.1,-,N/A,,Clear,150,2013-01-16 06:55:00